Aalborg, Denmark

6:21 PM CET on December 18, 2014 (GMT +0100)
Aalborg | Change Station
CLOSE
Current Station
Airport
Location: Aalborg,
Elevation: 10 ft
Nearby Weather Stations

Elev 10 ft 57.10 °N, 9.85 °E | Updated 31 minutes ago

Light Rain
Light Rain Drizzle
46 °F
Feels Like 42 °F
N
10
Wind Variable Wind from SW

Today
High -- | Low -- °F
--% Chance of Precip.
Yesterday
High -- | Low -- °F
Precip. -- in
8:55 AM 3:38 PM
Waning Crescent, 13% visible
Pressure 29.30 in
Visibility 5.0 miles
Clouds Few 400 ft
Scattered Clouds 500 ft
Overcast 700 ft
Windchill 42 °F
Dew Point 46 °F
Humidity 100%
Rainfall 0.00 in
Snow Depth Not available.
UV 0 out of 12
Pollen Not available.
Air Quality Not available.
Flu Activity Not available.
METAR EKYT 181650Z 23009KT 8000 -RADZ FEW004 SCT005 OVC007 08/08 Q0992

More Conditions Fewer Conditions

Pressure 29.30 in
Visibility 5.0 miles
Clouds Few 400 ft
Scattered Clouds 500 ft
Overcast 700 ft
Windchill 42 °F
Dew Point 46 °F
Humidity 100%
Rainfall 0.00 in
Snow Depth Not available.
UV 0 out of 12
Pollen Not available.
Air Quality Not available.
Flu Activity Not available.
METAR EKYT 181650Z 23009KT 8000 -RADZ FEW004 SCT005 OVC007 08/08 Q0992

More Conditions Fewer Conditions

10-Day Weather Forecast

Almanac

Astronomy

Dec. 18, 2014 Rise Set
Actual Time
Civil Twilight
Nautical Twilight
Astronomical Twilight
Moon
Length of Visible Light
Length of Day
Tomorrow will be .
, % of the Moon is Illuminated

Today's Extremes

Country Highs Country Lows

Community

WunderPhotos

Upload Photos

1,778,964 photos uploaded!

WunderBlogs® & News

Nearby

Air Quality

  Air Quality AQ Index Pollutant
Not available.

Snow Depth

Station Depth Elevation

Earthquake Activity

City Distance Mag. Time & Date
Minimum magnitude displayed is 2.5.

Coastal Water Temperatures

Place Temperature

Nearby Weather Stations